Thonotosassa, FL

9:27 PM EDT on August 19, 2019 (GMT -0400)
Thonotosassa | | Change Station
Active Advisory: Hydrologic Statement

Elev 89 ft 28.07 °N, 82.29 °W | Updated 28 seconds ago

Clear
Clear
77.7 °F
Feels Like 80 °F
N
0
Wind Variable Wind from SSW
Gusts 0.0 mph

Today
High -- | Low -- °F
--% Chance of Precip.
Yesterday
High -- | Low -- °F
Precip. -- in
Pressure 30.08 in
Visibility 10.0 miles
Clouds Clear
Heat Index 80 °F
Dew Point 75 °F
Humidity 91%
Rainfall 0.00 in
Snow Depth Not available.
7:01 AM 8:04 PM
Waning Gibbous, 82% visible
METAR KPCM 200115Z AUTO 00000KT 10SM CLR 26/25 A3008 RMK AO2
Pressure 30.08 in
Visibility 10.0 miles
Clouds Clear
Heat Index 80 °F
Dew Point 75 °F
Humidity 91%
Rainfall 0.00 in
Snow Depth Not available.
7:01 AM 8:04 PM
Waning Gibbous, 82% visible
METAR KPCM 200115Z AUTO 00000KT 10SM CLR 26/25 A3008 RMK AO2

Get Your Daily Forecast Email!

Thanks for signing up!

Be on the lookout for a verification email in your inbox.

You'll start receiving severe weather alerts in your inbox..

×

10-Day Weather Forecast

Almanac

Astronomy

Aug. 19, 2019 Rise Set
Actual Time
Civil Twilight
Nautical Twilight
Astronomical Twilight
Moon
Length of Visible Light
Length of Day
Tomorrow will be .
, % of the Moon is Illuminated

Today's Extremes

State Highs State Lows

Community

WunderPhotos

Category 6

Welcome to Category 6. This is the collective home for Weather Underground's featured writeups by Dr. Jeff Masters (right), Bob Henson (left), Chris Burt, and other regular contributors.

Nearby

Air Quality

  Air Quality AQ Index Pollutant
Not available.

Snow Depth

Station Depth Elevation

Earthquake Activity

City Distance Mag. Time & Date
Minimum magnitude displayed is 2.5.

Coastal Water Temperatures

Place Temperature

Stations

Nearby Weather Stations

Station Location Temp. Windchill Dew Point Humidity Wind Precip. Elev Updated Type
                   

Watches & Warnings

Hydrologic Statement
Issued: 9:45 PM EDT Aug. 18, 2019 – National Weather Service

* until further notice.
* At 09 PM Sunday the stage was 12.6 feet.
* No flooding is currently forecast.
* Flood stage is 13.0 feet.
* Forecast... the river will rise to near 12.3 feet after midnight
tomorrow
* impact... at 13.0 feet... River Drive and Squirrel Run way
downstream of County Road 640 are completely covered by water. One
home begins to flood.
* Flood history... this compares to a previous crest of 13.0 feet
on Jul 21 1959.



               Fld observed forecast 8am
location stg stg day time Mon Tue Wed Thu Fri

Alafia
Lithia 13.0 12.6 sun 09 PM 12.0 11.0 10.4 9.9 9.3




Lat... Lon 2787 8218 2784 8228 2789 8228 2792 8218